Cody, WY

2:12 PM MST on February 14, 2016 (GMT -0700)
HADS | | Change Station
CLOSE
Current Station
Personal Weather Station
Location: Wapiti, WY
Elevation: 5398 ft
Nearby Weather Stations
Active Advisory: Winter Weather Advisory

Elev 5398 ft 44.47 °N, 109.43 °W | Updated 57 minutes ago

Mostly Cloudy
Mostly Cloudy
40.0 °F
Feels Like 40.0 °F
N
0.0
Wind Variable Wind from North
Gusts 0.0 mph

Today
High -- | Low -- °F
--% Chance of Precip.
Yesterday
High -- | Low -- °F
Precip. -- in
Pressure 29.87 in
Visibility 10.0 miles
Clouds Few 5500 ft
Scattered Clouds 6500 ft
Mostly Cloudy 7500 ft
Dew Point Not available.
Humidity Not available.
Rainfall in
Snow Depth Not available.
7:19 AM 5:44 PM
Waxing Crescent, 45% visible
METAR KCOD 142055Z AUTO 32012G20KT 10SM FEW055 SCT065 BKN075 08/M08 A2987 RMK AO1 57003
Pressure 29.87 in
Visibility 10.0 miles
Clouds Few 5500 ft
Scattered Clouds 6500 ft
Mostly Cloudy 7500 ft
Dew Point Not available.
Humidity Not available.
Rainfall in
Snow Depth Not available.
7:19 AM 5:44 PM
Waxing Crescent, 45% visible
METAR KCOD 142055Z AUTO 32012G20KT 10SM FEW055 SCT065 BKN075 08/M08 A2987 RMK AO1 57003

10-Day Weather Forecast

Almanac

Astronomy

Feb. 14, 2016 Rise Set
Actual Time
Civil Twilight
Nautical Twilight
Astronomical Twilight
Moon
Length of Visible Light
Length of Day
Tomorrow will be .
, % of the Moon is Illuminated

Today's Extremes

State Highs State Lows

Community

WunderPhotos

Upload Photos

1,892,886 photos uploaded!

WunderBlog® & News

Nearby

Air Quality

  Air Quality AQ Index Pollutant
Not available.

Snow Depth

Station Depth Elevation

Earthquake Activity

City Distance Mag. Time & Date
Minimum magnitude displayed is 2.5.

Coastal Water Temperatures

Place Temperature

Stations

Nearby Weather Stations

Station Location Temp. Windchill Dew Point Humidity Wind Precip. Elev Updated Type
                   

Watches & Warnings

Winter Weather Advisory
Issued: 10:33 AM MST Feb. 14, 2016 – National Weather Service

... Winter Weather Advisory remains in effect until 5 PM MST
Monday...

* timing... periods of light to moderate snow... with areas of
blowing snow will continue through the day Monday.

* Snow accumulation... 6 to 10 inches in the mountains and 3 to 6
inches in the valleys with locally higher amounts.

* Wind and visibility... west winds 20 to 30 mph with gusts to 40
mph on the passes. Visibility may fall to below a quarter mile
in heavier snow and blowing snow.

* Main impact... travel will become difficult with snow packed
and icy roads and poor visibility. Before traveling...
motorists should check current Road conditions by visiting
wyoroad.Info or by dialing 511.

Precautionary/preparedness actions...

A Winter Weather Advisory for snow and blowing snow means that
visibilities will be limited due to strong winds blowing snow
around. Use caution when traveling... especially in open areas.